sensor_id;sensor_type;location;lat;lon;timestamp;P1;durP1;ratioP1;P2;durP2;ratioP2
36923;SDS011;22841;50.252;18.688;2024-01-30T09:20:19;31.90;;;12.77;;
36923;SDS011;22841;50.252;18.688;2024-01-30T09:22:47;27.67;;;12.57;;
36923;SDS011;22841;50.252;18.688;2024-01-30T09:25:15;31.20;;;12.63;;
36923;SDS011;22841;50.252;18.688;2024-01-30T09:27:41;26.90;;;12.73;;
36923;SDS011;22841;50.252;18.688;2024-01-30T09:30:07;24.88;;;12.05;;
36923;SDS011;22841;50.252;18.688;2024-01-30T09:32:33;29.33;;;12.20;;
36923;SDS011;22841;50.252;18.688;2024-01-30T09:34:59;29.65;;;14.55;;
36923;SDS011;22841;50.252;18.688;2024-01-30T09:37:25;36.97;;;15.63;;
36923;SDS011;22841;50.252;18.688;2024-01-30T09:39:51;30.50;;;13.27;;
36923;SDS011;22841;50.252;18.688;2024-01-30T09:42:20;23.70;;;11.85;;
36923;SDS011;22841;50.252;18.688;2024-01-30T09:44:48;28.33;;;12.85;;
36923;SDS011;22841;50.252;18.688;2024-01-30T09:47:17;26.90;;;11.88;;
36923;SDS011;22841;50.252;18.688;2024-01-30T09:49:43;31.45;;;12.43;;
36923;SDS011;22841;50.252;18.688;2024-01-30T09:52:09;22.90;;;11.45;;
36923;SDS011;22841;50.252;18.688;2024-01-30T09:54:37;25.98;;;11.70;;
36923;SDS011;22841;50.252;18.688;2024-01-30T09:57:04;22.58;;;11.05;;
36923;SDS011;22841;50.252;18.688;2024-01-30T09:59:30;26.58;;;11.63;;
36923;SDS011;22841;50.252;18.688;2024-01-30T10:01:57;24.98;;;11.13;;
36923;SDS011;22841;50.252;18.688;2024-01-30T10:04:23;21.25;;;10.65;;
36923;SDS011;22841;50.252;18.688;2024-01-30T10:06:49;29.65;;;10.40;;
36923;SDS011;22841;50.252;18.688;2024-01-30T10:09:16;24.65;;;11.30;;
36923;SDS011;22841;50.252;18.688;2024-01-30T10:11:42;20.40;;;10.43;;
36923;SDS011;22841;50.252;18.688;2024-01-30T10:14:09;21.00;;;10.30;;
36923;SDS011;22841;50.252;18.688;2024-01-30T10:16:35;20.17;;;10.35;;
36923;SDS011;22841;50.252;18.688;2024-01-30T10:19:01;19.48;;;9.52;;
36923;SDS011;22841;50.252;18.688;2024-01-30T10:21:29;26.92;;;12.60;;
36923;SDS011;22841;50.252;18.688;2024-01-30T10:23:55;29.48;;;11.82;;
36923;SDS011;22841;50.252;18.688;2024-01-30T10:26:22;24.20;;;11.55;;
36923;SDS011;22841;50.252;18.688;2024-01-30T10:28:48;29.00;;;11.45;;
36923;SDS011;22841;50.252;18.688;2024-01-30T10:31:18;24.60;;;12.57;;
36923;SDS011;22841;50.252;18.688;2024-01-30T10:33:44;24.63;;;11.48;;
36923;SDS011;22841;50.252;18.688;2024-01-30T10:36:13;24.00;;;10.30;;
36923;SDS011;22841;50.252;18.688;2024-01-30T10:38:42;24.02;;;10.32;;
36923;SDS011;22841;50.252;18.688;2024-01-30T10:41:12;27.65;;;10.85;;
36923;SDS011;22841;50.252;18.688;2024-01-30T10:43:41;32.08;;;12.05;;
36923;SDS011;22841;50.252;18.688;2024-01-30T10:46:14;22.40;;;10.80;;
36923;SDS011;22841;50.252;18.688;2024-01-30T10:48:46;19.63;;;10.00;;
36923;SDS011;22841;50.252;18.688;2024-01-30T10:51:27;26.45;;;10.10;;
36923;SDS011;22841;50.252;18.688;2024-01-30T10:53:53;19.30;;;10.55;;
36923;SDS011;22841;50.252;18.688;2024-01-30T10:56:21;26.10;;;10.73;;
36923;SDS011;22841;50.252;18.688;2024-01-30T10:58:49;25.27;;;11.57;;
36923;SDS011;22841;50.252;18.688;2024-01-30T11:01:18;19.58;;;8.77;;
36923;SDS011;22841;50.252;18.688;2024-01-30T11:03:45;26.23;;;10.90;;
36923;SDS011;22841;50.252;18.688;2024-01-30T11:06:11;23.35;;;10.52;;
36923;SDS011;22841;50.252;18.688;2024-01-30T11:11:10;19.73;;;9.50;;
36923;SDS011;22841;50.252;18.688;2024-01-30T11:13:36;18.23;;;10.10;;
36923;SDS011;22841;50.252;18.688;2024-01-30T11:16:06;20.52;;;10.93;;
36923;SDS011;22841;50.252;18.688;2024-01-30T11:18:32;18.75;;;8.90;;
36923;SDS011;22841;50.252;18.688;2024-01-30T11:21:01;21.15;;;10.65;;
36923;SDS011;22841;50.252;18.688;2024-01-30T11:23:30;19.88;;;10.35;;
36923;SDS011;22841;50.252;18.688;2024-01-30T11:25:58;24.13;;;11.40;;
36923;SDS011;22841;50.252;18.688;2024-01-30T11:28:24;27.83;;;11.15;;
36923;SDS011;22841;50.252;18.688;2024-01-30T11:31:03;19.65;;;10.30;;
36923;SDS011;22841;50.252;18.688;2024-01-30T11:33:32;27.08;;;10.48;;
36923;SDS011;22841;50.252;18.688;2024-01-30T11:36:00;24.42;;;10.57;;
36923;SDS011;22841;50.252;18.688;2024-01-30T11:38:27;24.38;;;11.60;;
36923;SDS011;22841;50.252;18.688;2024-01-30T11:40:56;20.48;;;11.07;;
36923;SDS011;22841;50.252;18.688;2024-01-30T11:43:23;30.00;;;11.77;;
36923;SDS011;22841;50.252;18.688;2024-01-30T11:45:49;21.42;;;11.70;;
36923;SDS011;22841;50.252;18.688;2024-01-30T11:48:15;19.48;;;10.27;;
36923;SDS011;22841;50.252;18.688;2024-01-30T11:50:42;22.80;;;9.98;;
36923;SDS011;22841;50.252;18.688;2024-01-30T11:53:12;23.95;;;10.00;;
36923;SDS011;22841;50.252;18.688;2024-01-30T11:55:38;16.15;;;9.20;;
36923;SDS011;22841;50.252;18.688;2024-01-30T11:58:04;19.13;;;10.68;;
36923;SDS011;22841;50.252;18.688;2024-01-30T12:00:30;23.27;;;12.88;;
36923;SDS011;22841;50.252;18.688;2024-01-30T12:02:58;22.48;;;10.60;;
36923;SDS011;22841;50.252;18.688;2024-01-30T12:05:26;23.15;;;11.68;;
36923;SDS011;22841;50.252;18.688;2024-01-30T12:07:53;21.35;;;10.77;;
36923;SDS011;22841;50.252;18.688;2024-01-30T12:10:19;18.80;;;10.50;;
36923;SDS011;22841;50.252;18.688;2024-01-30T12:12:46;16.10;;;8.52;;
36923;SDS011;22841;50.252;18.688;2024-01-30T12:15:14;24.23;;;10.70;;
36923;SDS011;22841;50.252;18.688;2024-01-30T12:17:41;16.00;;;9.20;;
36923;SDS011;22841;50.252;18.688;2024-01-30T12:22:38;23.15;;;12.05;;
36923;SDS011;22841;50.252;18.688;2024-01-30T12:25:05;17.63;;;9.88;;
36923;SDS011;22841;50.252;18.688;2024-01-30T12:27:35;20.23;;;9.65;;
36923;SDS011;22841;50.252;18.688;2024-01-30T12:30:04;26.65;;;9.93;;
36923;SDS011;22841;50.252;18.688;2024-01-30T12:32:31;19.20;;;10.07;;
36923;SDS011;22841;50.252;18.688;2024-01-30T12:34:59;19.27;;;10.10;;
36923;SDS011;22841;50.252;18.688;2024-01-30T12:37:25;18.83;;;9.88;;
36923;SDS011;22841;50.252;18.688;2024-01-30T12:39:51;19.27;;;9.18;;
36923;SDS011;22841;50.252;18.688;2024-01-30T12:42:19;22.73;;;9.95;;
36923;SDS011;22841;50.252;18.688;2024-01-30T12:44:47;21.52;;;8.63;;
36923;SDS011;22841;50.252;18.688;2024-01-30T12:47:14;18.98;;;8.95;;
36923;SDS011;22841;50.252;18.688;2024-01-30T12:49:44;22.80;;;9.38;;
36923;SDS011;22841;50.252;18.688;2024-01-30T12:52:14;20.92;;;8.95;;
36923;SDS011;22841;50.252;18.688;2024-01-30T12:54:41;18.05;;;8.55;;
36923;SDS011;22841;50.252;18.688;2024-01-30T12:57:07;23.05;;;10.60;;
36923;SDS011;22841;50.252;18.688;2024-01-30T12:59:34;20.85;;;9.98;;
36923;SDS011;22841;50.252;18.688;2024-01-30T13:02:00;22.25;;;8.85;;
36923;SDS011;22841;50.252;18.688;2024-01-30T13:04:27;13.90;;;8.55;;
36923;SDS011;22841;50.252;18.688;2024-01-30T13:06:54;18.98;;;9.50;;
36923;SDS011;22841;50.252;18.688;2024-01-30T13:09:20;23.95;;;11.20;;
36923;SDS011;22841;50.252;18.688;2024-01-30T13:11:46;22.27;;;8.48;;
36923;SDS011;22841;50.252;18.688;2024-01-30T13:14:12;20.08;;;8.95;;
36923;SDS011;22841;50.252;18.688;2024-01-30T13:16:38;16.42;;;9.65;;
36923;SDS011;22841;50.252;18.688;2024-01-30T13:19:04;20.58;;;8.68;;
36923;SDS011;22841;50.252;18.688;2024-01-30T13:21:31;21.58;;;9.93;;
36923;SDS011;22841;50.252;18.688;2024-01-30T13:23:57;18.63;;;9.05;;
36923;SDS011;22841;50.252;18.688;2024-01-30T13:26:24;21.90;;;10.25;;
36923;SDS011;22841;50.252;18.688;2024-01-30T13:28:50;21.05;;;9.93;;
36923;SDS011;22841;50.252;18.688;2024-01-30T13:31:16;20.45;;;9.77;;
36923;SDS011;22841;50.252;18.688;2024-01-30T13:33:43;18.10;;;9.07;;
36923;SDS011;22841;50.252;18.688;2024-01-30T13:36:10;20.55;;;9.23;;
36923;SDS011;22841;50.252;18.688;2024-01-30T13:38:37;16.90;;;9.68;;
36923;SDS011;22841;50.252;18.688;2024-01-30T13:41:04;21.70;;;9.55;;
36923;SDS011;22841;50.252;18.688;2024-01-30T13:43:30;21.17;;;9.77;;
36923;SDS011;22841;50.252;18.688;2024-01-30T13:45:56;17.27;;;8.90;;
36923;SDS011;22841;50.252;18.688;2024-01-30T13:48:23;22.08;;;8.98;;
36923;SDS011;22841;50.252;18.688;2024-01-30T13:50:49;18.95;;;9.05;;
36923;SDS011;22841;50.252;18.688;2024-01-30T13:53:15;17.20;;;9.57;;
36923;SDS011;22841;50.252;18.688;2024-01-30T13:55:41;18.35;;;8.35;;
36923;SDS011;22841;50.252;18.688;2024-01-30T13:58:07;22.65;;;9.57;;
36923;SDS011;22841;50.252;18.688;2024-01-30T14:00:33;17.00;;;9.30;;
36923;SDS011;22841;50.252;18.688;2024-01-30T14:03:00;19.30;;;9.05;;
36923;SDS011;22841;50.252;18.688;2024-01-30T14:05:26;22.67;;;9.23;;
36923;SDS011;22841;50.252;18.688;2024-01-30T14:07:55;20.35;;;9.73;;
36923;SDS011;22841;50.252;18.688;2024-01-30T14:10:23;26.10;;;9.25;;
36923;SDS011;22841;50.252;18.688;2024-01-30T14:12:49;19.00;;;10.57;;
36923;SDS011;22841;50.252;18.688;2024-01-30T14:15:15;18.25;;;8.70;;
36923;SDS011;22841;50.252;18.688;2024-01-30T14:17:44;20.73;;;8.57;;
36923;SDS011;22841;50.252;18.688;2024-01-30T14:20:14;19.73;;;8.85;;
36923;SDS011;22841;50.252;18.688;2024-01-30T14:22:42;22.52;;;9.65;;
36923;SDS011;22841;50.252;18.688;2024-01-30T14:25:08;17.70;;;9.27;;
36923;SDS011;22841;50.252;18.688;2024-01-30T14:27:35;26.13;;;9.70;;
36923;SDS011;22841;50.252;18.688;2024-01-30T14:30:01;20.92;;;9.43;;
36923;SDS011;22841;50.252;18.688;2024-01-30T14:32:28;19.95;;;10.65;;
36923;SDS011;22841;50.252;18.688;2024-01-30T14:34:54;22.40;;;9.77;;
36923;SDS011;22841;50.252;18.688;2024-01-30T14:37:20;19.83;;;10.48;;
36923;SDS011;22841;50.252;18.688;2024-01-30T14:39:47;20.23;;;9.70;;
36923;SDS011;22841;50.252;18.688;2024-01-30T14:42:16;21.33;;;10.30;;
36923;SDS011;22841;50.252;18.688;2024-01-30T14:44:42;20.08;;;10.32;;
36923;SDS011;22841;50.252;18.688;2024-01-30T14:47:08;15.80;;;8.90;;
36923;SDS011;22841;50.252;18.688;2024-01-30T14:49:35;20.95;;;9.80;;
36923;SDS011;22841;50.252;18.688;2024-01-30T14:52:01;20.65;;;9.70;;
36923;SDS011;22841;50.252;18.688;2024-01-30T14:54:29;18.45;;;10.02;;
36923;SDS011;22841;50.252;18.688;2024-01-30T14:56:55;19.42;;;9.82;;
36923;SDS011;22841;50.252;18.688;2024-01-30T14:59:22;24.23;;;9.25;;
36923;SDS011;22841;50.252;18.688;2024-01-30T15:01:48;28.30;;;12.50;;
36923;SDS011;22841;50.252;18.688;2024-01-30T15:04:14;20.00;;;10.15;;
36923;SDS011;22841;50.252;18.688;2024-01-30T15:06:40;22.08;;;11.15;;
36923;SDS011;22841;50.252;18.688;2024-01-30T15:09:11;23.73;;;11.13;;
36923;SDS011;22841;50.252;18.688;2024-01-30T15:11:40;22.70;;;10.85;;
36923;SDS011;22841;50.252;18.688;2024-01-30T15:14:07;23.50;;;11.65;;
36923;SDS011;22841;50.252;18.688;2024-01-30T15:16:33;22.73;;;10.95;;
36923;SDS011;22841;50.252;18.688;2024-01-30T15:18:59;22.83;;;10.60;;
36923;SDS011;22841;50.252;18.688;2024-01-30T15:21:25;21.13;;;10.68;;
36923;SDS011;22841;50.252;18.688;2024-01-30T15:23:52;26.52;;;12.00;;
36923;SDS011;22841;50.252;18.688;2024-01-30T15:26:18;25.63;;;11.73;;
36923;SDS011;22841;50.252;18.688;2024-01-30T15:28:44;26.90;;;11.63;;
36923;SDS011;22841;50.252;18.688;2024-01-30T15:31:10;22.63;;;12.50;;
36923;SDS011;22841;50.252;18.688;2024-01-30T15:33:36;30.40;;;11.65;;
36923;SDS011;22841;50.252;18.688;2024-01-30T15:36:02;28.10;;;12.25;;
36923;SDS011;22841;50.252;18.688;2024-01-30T15:38:28;26.73;;;12.38;;
36923;SDS011;22841;50.252;18.688;2024-01-30T15:40:55;27.52;;;12.88;;
36923;SDS011;22841;50.252;18.688;2024-01-30T15:43:22;30.23;;;12.88;;
36923;SDS011;22841;50.252;18.688;2024-01-30T15:45:48;27.63;;;11.68;;
36923;SDS011;22841;50.252;18.688;2024-01-30T15:48:16;23.70;;;11.38;;
36923;SDS011;22841;50.252;18.688;2024-01-30T15:50:45;26.42;;;12.75;;
36923;SDS011;22841;50.252;18.688;2024-01-30T15:53:11;26.13;;;12.38;;
36923;SDS011;22841;50.252;18.688;2024-01-30T15:55:38;23.30;;;12.70;;
36923;SDS011;22841;50.252;18.688;2024-01-30T15:58:04;25.73;;;12.57;;
36923;SDS011;22841;50.252;18.688;2024-01-30T16:00:31;25.17;;;12.65;;
36923;SDS011;22841;50.252;18.688;2024-01-30T16:02:57;27.58;;;12.90;;
36923;SDS011;22841;50.252;18.688;2024-01-30T16:05:24;26.55;;;13.15;;
36923;SDS011;22841;50.252;18.688;2024-01-30T16:07:50;25.25;;;12.25;;
36923;SDS011;22841;50.252;18.688;2024-01-30T16:10:16;23.15;;;10.98;;
36923;SDS011;22841;50.252;18.688;2024-01-30T16:12:43;23.48;;;9.73;;
36923;SDS011;22841;50.252;18.688;2024-01-30T16:15:12;21.85;;;11.95;;
36923;SDS011;22841;50.252;18.688;2024-01-30T16:17:39;23.67;;;11.48;;
36923;SDS011;22841;50.252;18.688;2024-01-30T16:20:05;20.63;;;10.82;;
36923;SDS011;22841;50.252;18.688;2024-01-30T16:22:32;19.95;;;9.77;;
36923;SDS011;22841;50.252;18.688;2024-01-30T16:24:58;22.98;;;11.85;;
36923;SDS011;22841;50.252;18.688;2024-01-30T16:27:24;25.85;;;11.02;;
36923;SDS011;22841;50.252;18.688;2024-01-30T16:29:50;23.30;;;11.27;;
36923;SDS011;22841;50.252;18.688;2024-01-30T16:32:16;22.50;;;10.10;;
36923;SDS011;22841;50.252;18.688;2024-01-30T16:34:42;23.40;;;10.65;;
36923;SDS011;22841;50.252;18.688;2024-01-30T16:37:10;22.50;;;10.65;;
36923;SDS011;22841;50.252;18.688;2024-01-30T16:39:36;24.10;;;10.45;;
36923;SDS011;22841;50.252;18.688;2024-01-30T16:44:50;23.60;;;9.07;;
36923;SDS011;22841;50.252;18.688;2024-01-30T16:47:47;27.80;;;10.32;;
36923;SDS011;22841;50.252;18.688;2024-01-30T16:50:13;19.60;;;9.40;;
36923;SDS011;22841;50.252;18.688;2024-01-30T16:52:40;21.88;;;9.93;;
36923;SDS011;22841;50.252;18.688;2024-01-30T16:55:06;21.67;;;8.85;;
36923;SDS011;22841;50.252;18.688;2024-01-30T16:57:32;27.17;;;9.90;;
36923;SDS011;22841;50.252;18.688;2024-01-30T16:59:58;21.45;;;10.65;;
36923;SDS011;22841;50.252;18.688;2024-01-30T23:35:55;20.90;;;10.20;;
36923;SDS011;22841;50.252;18.688;2024-01-30T23:51:34;19.67;;;10.40;;
36923;SDS011;22841;50.252;18.688;2024-01-30T23:54:00;17.90;;;9.40;;
